Prunedale, California
Current Conditions -  °F | °C
As of 4:53 PM on Monday 20 Oct 2014 (Local Time) from KSNS Reporting Station
Overcast Overcast  
Wind Chill: 19°   Ceiling: 5000
Heat Index: 19°   Visibility: 10mi
Dew Point: 14°   Wind: 5mph
Humidity: 70%   Direction: 300°WNW
Pressure: 29.98"   Gusts: NA
Location:  36.7756°N, 121.661°W
Report Text: KSNS 202353Z 30004KT 10SM FEW018 BKN050 OVC060 19/14 A2998 RMK AO2 SLP160 T01940139 10233 20189 51005
Loading
Personal Weather Stations






























Interactive Weather Map
Tropical Storm Tracking
New forecast layout! Learn more

10-Day Weather Forecast

Advertisements
Track Severe Weather on mobile